sensor_id;sensor_type;location;lat;lon;timestamp;P1;durP1;ratioP1;P2;durP2;ratioP2
19492;SDS011;9887;54.366;10.958;2022-07-29T00:01:41;6.25;;;1.38;;
19492;SDS011;9887;54.366;10.958;2022-07-29T00:04:09;2.33;;;1.17;;
19492;SDS011;9887;54.366;10.958;2022-07-29T00:06:37;4.30;;;1.38;;
19492;SDS011;9887;54.366;10.958;2022-07-29T00:09:05;8.00;;;1.40;;
19492;SDS011;9887;54.366;10.958;2022-07-29T00:11:34;4.55;;;1.10;;
19492;SDS011;9887;54.366;10.958;2022-07-29T00:14:02;2.78;;;1.27;;
19492;SDS011;9887;54.366;10.958;2022-07-29T00:16:30;4.10;;;1.27;;
19492;SDS011;9887;54.366;10.958;2022-07-29T00:18:59;2.63;;;1.08;;
19492;SDS011;9887;54.366;10.958;2022-07-29T00:21:27;5.45;;;1.60;;
19492;SDS011;9887;54.366;10.958;2022-07-29T00:23:55;3.97;;;1.60;;
19492;SDS011;9887;54.366;10.958;2022-07-29T00:26:23;5.97;;;1.70;;
19492;SDS011;9887;54.366;10.958;2022-07-29T00:28:53;4.97;;;1.40;;
19492;SDS011;9887;54.366;10.958;2022-07-29T00:31:41;3.78;;;1.27;;
19492;SDS011;9887;54.366;10.958;2022-07-29T00:34:11;4.32;;;1.23;;
19492;SDS011;9887;54.366;10.958;2022-07-29T00:36:52;2.30;;;1.10;;
19492;SDS011;9887;54.366;10.958;2022-07-29T00:39:20;3.08;;;1.30;;
19492;SDS011;9887;54.366;10.958;2022-07-29T00:41:48;2.80;;;1.30;;
19492;SDS011;9887;54.366;10.958;2022-07-29T00:44:18;4.35;;;1.83;;
19492;SDS011;9887;54.366;10.958;2022-07-29T00:46:46;5.70;;;1.60;;
19492;SDS011;9887;54.366;10.958;2022-07-29T00:49:15;4.00;;;1.30;;
19492;SDS011;9887;54.366;10.958;2022-07-29T00:51:43;5.85;;;1.50;;
19492;SDS011;9887;54.366;10.958;2022-07-29T00:54:11;2.50;;;1.30;;
19492;SDS011;9887;54.366;10.958;2022-07-29T00:56:40;3.88;;;1.30;;
19492;SDS011;9887;54.366;10.958;2022-07-29T00:59:08;3.58;;;1.23;;
19492;SDS011;9887;54.366;10.958;2022-07-29T01:01:36;3.55;;;1.50;;
19492;SDS011;9887;54.366;10.958;2022-07-29T01:04:05;5.15;;;1.70;;
19492;SDS011;9887;54.366;10.958;2022-07-29T01:06:34;6.47;;;1.40;;
19492;SDS011;9887;54.366;10.958;2022-07-29T01:09:03;4.75;;;1.85;;
19492;SDS011;9887;54.366;10.958;2022-07-29T01:11:31;5.10;;;1.58;;
19492;SDS011;9887;54.366;10.958;2022-07-29T01:14:04;6.63;;;1.50;;
19492;SDS011;9887;54.366;10.958;2022-07-29T01:16:36;4.15;;;1.85;;
19492;SDS011;9887;54.366;10.958;2022-07-29T01:19:13;2.55;;;1.52;;
19492;SDS011;9887;54.366;10.958;2022-07-29T01:21:55;4.90;;;2.10;;
19492;SDS011;9887;54.366;10.958;2022-07-29T01:24:30;8.07;;;2.08;;
19492;SDS011;9887;54.366;10.958;2022-07-29T01:27:06;4.35;;;2.28;;
19492;SDS011;9887;54.366;10.958;2022-07-29T01:29:51;5.10;;;1.70;;
19492;SDS011;9887;54.366;10.958;2022-07-29T01:32:24;5.00;;;1.80;;
19492;SDS011;9887;54.366;10.958;2022-07-29T01:34:57;7.20;;;1.83;;
19492;SDS011;9887;54.366;10.958;2022-07-29T01:37:29;2.97;;;1.80;;
19492;SDS011;9887;54.366;10.958;2022-07-29T01:40:05;3.60;;;1.63;;
19492;SDS011;9887;54.366;10.958;2022-07-29T01:42:42;4.85;;;1.90;;
19492;SDS011;9887;54.366;10.958;2022-07-29T01:45:14;4.65;;;2.00;;
19492;SDS011;9887;54.366;10.958;2022-07-29T01:47:46;6.72;;;2.00;;
19492;SDS011;9887;54.366;10.958;2022-07-29T01:50:22;10.30;;;2.20;;
19492;SDS011;9887;54.366;10.958;2022-07-29T01:53:01;6.20;;;2.20;;
19492;SDS011;9887;54.366;10.958;2022-07-29T01:55:32;5.57;;;2.13;;
19492;SDS011;9887;54.366;10.958;2022-07-29T01:58:04;6.00;;;2.20;;
19492;SDS011;9887;54.366;10.958;2022-07-29T02:00:34;5.63;;;2.13;;
19492;SDS011;9887;54.366;10.958;2022-07-29T02:03:04;5.55;;;2.17;;
19492;SDS011;9887;54.366;10.958;2022-07-29T02:05:36;7.70;;;2.38;;
19492;SDS011;9887;54.366;10.958;2022-07-29T02:08:06;6.18;;;2.30;;
19492;SDS011;9887;54.366;10.958;2022-07-29T02:10:34;5.55;;;2.30;;
19492;SDS011;9887;54.366;10.958;2022-07-29T02:13:04;8.20;;;2.40;;
19492;SDS011;9887;54.366;10.958;2022-07-29T02:15:35;4.88;;;2.38;;
19492;SDS011;9887;54.366;10.958;2022-07-29T02:18:04;5.53;;;2.65;;
19492;SDS011;9887;54.366;10.958;2022-07-29T02:20:34;6.40;;;2.45;;
19492;SDS011;9887;54.366;10.958;2022-07-29T02:23:03;6.10;;;2.75;;
19492;SDS011;9887;54.366;10.958;2022-07-29T02:25:33;8.25;;;2.28;;
19492;SDS011;9887;54.366;10.958;2022-07-29T02:28:03;5.43;;;2.22;;
19492;SDS011;9887;54.366;10.958;2022-07-29T02:30:33;7.47;;;2.40;;
19492;SDS011;9887;54.366;10.958;2022-07-29T02:33:07;5.60;;;1.90;;
19492;SDS011;9887;54.366;10.958;2022-07-29T02:35:37;7.22;;;2.40;;
19492;SDS011;9887;54.366;10.958;2022-07-29T02:38:07;11.07;;;2.42;;
19492;SDS011;9887;54.366;10.958;2022-07-29T02:40:53;5.40;;;2.15;;
19492;SDS011;9887;54.366;10.958;2022-07-29T02:43:23;5.40;;;2.00;;
19492;SDS011;9887;54.366;10.958;2022-07-29T02:45:54;6.88;;;2.55;;
19492;SDS011;9887;54.366;10.958;2022-07-29T02:48:26;9.85;;;3.05;;
19492;SDS011;9887;54.366;10.958;2022-07-29T02:51:01;9.80;;;2.63;;
19492;SDS011;9887;54.366;10.958;2022-07-29T02:53:38;6.25;;;2.20;;
19492;SDS011;9887;54.366;10.958;2022-07-29T02:56:10;6.78;;;2.30;;
19492;SDS011;9887;54.366;10.958;2022-07-29T02:58:42;7.57;;;3.40;;
19492;SDS011;9887;54.366;10.958;2022-07-29T03:01:16;7.25;;;2.90;;
19492;SDS011;9887;54.366;10.958;2022-07-29T03:03:48;6.72;;;2.65;;
19492;SDS011;9887;54.366;10.958;2022-07-29T03:06:18;6.57;;;2.50;;
19492;SDS011;9887;54.366;10.958;2022-07-29T03:09:03;5.20;;;2.30;;
19492;SDS011;9887;54.366;10.958;2022-07-29T03:11:38;8.00;;;2.30;;
19492;SDS011;9887;54.366;10.958;2022-07-29T03:14:16;7.18;;;2.40;;
19492;SDS011;9887;54.366;10.958;2022-07-29T03:16:48;5.88;;;2.38;;
19492;SDS011;9887;54.366;10.958;2022-07-29T03:19:16;7.82;;;2.58;;
19492;SDS011;9887;54.366;10.958;2022-07-29T03:21:45;6.53;;;2.30;;
19492;SDS011;9887;54.366;10.958;2022-07-29T03:24:24;4.80;;;2.10;;
19492;SDS011;9887;54.366;10.958;2022-07-29T03:26:56;8.30;;;2.58;;
19492;SDS011;9887;54.366;10.958;2022-07-29T03:29:25;10.77;;;2.95;;
19492;SDS011;9887;54.366;10.958;2022-07-29T03:32:00;6.65;;;2.65;;
19492;SDS011;9887;54.366;10.958;2022-07-29T03:34:34;6.15;;;2.60;;
19492;SDS011;9887;54.366;10.958;2022-07-29T03:37:03;7.25;;;2.78;;
19492;SDS011;9887;54.366;10.958;2022-07-29T03:39:32;7.85;;;3.13;;
19492;SDS011;9887;54.366;10.958;2022-07-29T03:42:02;6.05;;;2.70;;
19492;SDS011;9887;54.366;10.958;2022-07-29T03:44:32;12.63;;;3.10;;
19492;SDS011;9887;54.366;10.958;2022-07-29T03:47:03;10.50;;;2.80;;
19492;SDS011;9887;54.366;10.958;2022-07-29T03:49:32;7.68;;;3.10;;
19492;SDS011;9887;54.366;10.958;2022-07-29T03:52:04;6.63;;;2.78;;
19492;SDS011;9887;54.366;10.958;2022-07-29T03:54:32;8.50;;;3.33;;
19492;SDS011;9887;54.366;10.958;2022-07-29T03:57:01;6.45;;;2.63;;
19492;SDS011;9887;54.366;10.958;2022-07-29T03:59:30;6.72;;;2.80;;
19492;SDS011;9887;54.366;10.958;2022-07-29T04:02:00;12.38;;;3.13;;
19492;SDS011;9887;54.366;10.958;2022-07-29T04:04:32;6.82;;;2.60;;
19492;SDS011;9887;54.366;10.958;2022-07-29T04:07:00;9.32;;;2.60;;
19492;SDS011;9887;54.366;10.958;2022-07-29T04:09:28;8.27;;;2.40;;
19492;SDS011;9887;54.366;10.958;2022-07-29T04:11:56;9.35;;;2.67;;
19492;SDS011;9887;54.366;10.958;2022-07-29T04:14:29;6.65;;;2.67;;
19492;SDS011;9887;54.366;10.958;2022-07-29T04:16:58;8.18;;;2.53;;
19492;SDS011;9887;54.366;10.958;2022-07-29T04:19:28;8.57;;;3.08;;
19492;SDS011;9887;54.366;10.958;2022-07-29T04:21:56;7.32;;;2.90;;
19492;SDS011;9887;54.366;10.958;2022-07-29T04:24:25;5.78;;;2.78;;
19492;SDS011;9887;54.366;10.958;2022-07-29T04:26:53;8.45;;;2.72;;
19492;SDS011;9887;54.366;10.958;2022-07-29T04:29:21;4.95;;;2.05;;
19492;SDS011;9887;54.366;10.958;2022-07-29T04:31:49;11.23;;;2.75;;
19492;SDS011;9887;54.366;10.958;2022-07-29T04:34:17;5.85;;;2.45;;
19492;SDS011;9887;54.366;10.958;2022-07-29T04:36:47;6.82;;;2.60;;
19492;SDS011;9887;54.366;10.958;2022-07-29T04:39:15;7.65;;;2.20;;
19492;SDS011;9887;54.366;10.958;2022-07-29T04:41:48;9.23;;;2.03;;
19492;SDS011;9887;54.366;10.958;2022-07-29T04:44:20;9.95;;;2.58;;
19492;SDS011;9887;54.366;10.958;2022-07-29T04:46:54;6.43;;;2.10;;
19492;SDS011;9887;54.366;10.958;2022-07-29T04:49:22;5.53;;;2.45;;
19492;SDS011;9887;54.366;10.958;2022-07-29T04:51:52;6.78;;;1.83;;
19492;SDS011;9887;54.366;10.958;2022-07-29T04:54:20;6.22;;;1.90;;
19492;SDS011;9887;54.366;10.958;2022-07-29T04:56:48;9.40;;;2.50;;
19492;SDS011;9887;54.366;10.958;2022-07-29T04:59:16;6.25;;;2.10;;
19492;SDS011;9887;54.366;10.958;2022-07-29T05:01:44;8.50;;;2.00;;
19492;SDS011;9887;54.366;10.958;2022-07-29T05:04:12;6.40;;;2.22;;
19492;SDS011;9887;54.366;10.958;2022-07-29T05:06:41;7.65;;;2.05;;
19492;SDS011;9887;54.366;10.958;2022-07-29T05:09:10;4.80;;;1.80;;
19492;SDS011;9887;54.366;10.958;2022-07-29T05:11:38;6.78;;;2.00;;
19492;SDS011;9887;54.366;10.958;2022-07-29T05:14:06;6.63;;;2.30;;
19492;SDS011;9887;54.366;10.958;2022-07-29T05:16:34;8.90;;;2.45;;
19492;SDS011;9887;54.366;10.958;2022-07-29T05:19:02;5.47;;;1.90;;
19492;SDS011;9887;54.366;10.958;2022-07-29T05:21:30;7.45;;;2.38;;
19492;SDS011;9887;54.366;10.958;2022-07-29T05:23:58;6.22;;;2.10;;
19492;SDS011;9887;54.366;10.958;2022-07-29T05:26:27;3.30;;;1.70;;
19492;SDS011;9887;54.366;10.958;2022-07-29T05:28:55;7.32;;;2.20;;
19492;SDS011;9887;54.366;10.958;2022-07-29T05:31:23;7.55;;;2.10;;
19492;SDS011;9887;54.366;10.958;2022-07-29T05:33:51;5.00;;;1.77;;
19492;SDS011;9887;54.366;10.958;2022-07-29T05:36:19;8.40;;;2.90;;
19492;SDS011;9887;54.366;10.958;2022-07-29T05:38:47;5.30;;;1.92;;
19492;SDS011;9887;54.366;10.958;2022-07-29T05:41:15;5.82;;;2.03;;
19492;SDS011;9887;54.366;10.958;2022-07-29T05:43:44;5.30;;;1.80;;
19492;SDS011;9887;54.366;10.958;2022-07-29T05:46:12;6.57;;;2.38;;
19492;SDS011;9887;54.366;10.958;2022-07-29T05:48:40;8.00;;;1.90;;
19492;SDS011;9887;54.366;10.958;2022-07-29T05:51:08;7.35;;;2.20;;
19492;SDS011;9887;54.366;10.958;2022-07-29T05:53:36;6.10;;;1.88;;
19492;SDS011;9887;54.366;10.958;2022-07-29T05:56:04;5.40;;;1.80;;
19492;SDS011;9887;54.366;10.958;2022-07-29T05:58:33;5.18;;;1.45;;
19492;SDS011;9887;54.366;10.958;2022-07-29T06:01:02;6.00;;;1.67;;
19492;SDS011;9887;54.366;10.958;2022-07-29T06:03:30;4.88;;;1.50;;
19492;SDS011;9887;54.366;10.958;2022-07-29T06:05:58;4.07;;;1.70;;
19492;SDS011;9887;54.366;10.958;2022-07-29T06:08:26;4.65;;;1.98;;
19492;SDS011;9887;54.366;10.958;2022-07-29T06:10:54;26.10;;;4.35;;
19492;SDS011;9887;54.366;10.958;2022-07-29T06:13:22;5.45;;;1.80;;
19492;SDS011;9887;54.366;10.958;2022-07-29T06:15:50;7.30;;;1.88;;
19492;SDS011;9887;54.366;10.958;2022-07-29T06:18:19;4.93;;;1.98;;
19492;SDS011;9887;54.366;10.958;2022-07-29T06:20:49;30.65;;;3.15;;
19492;SDS011;9887;54.366;10.958;2022-07-29T06:23:18;7.80;;;1.60;;
19492;SDS011;9887;54.366;10.958;2022-07-29T06:25:46;8.35;;;1.70;;
19492;SDS011;9887;54.366;10.958;2022-07-29T06:28:14;5.40;;;1.70;;
19492;SDS011;9887;54.366;10.958;2022-07-29T06:30:42;5.53;;;1.70;;
19492;SDS011;9887;54.366;10.958;2022-07-29T06:33:15;4.50;;;1.55;;
19492;SDS011;9887;54.366;10.958;2022-07-29T06:35:46;5.55;;;1.58;;
19492;SDS011;9887;54.366;10.958;2022-07-29T06:38:20;7.35;;;1.70;;
19492;SDS011;9887;54.366;10.958;2022-07-29T06:40:59;5.35;;;1.58;;
19492;SDS011;9887;54.366;10.958;2022-07-29T06:43:28;4.82;;;2.20;;
19492;SDS011;9887;54.366;10.958;2022-07-29T06:46:00;4.82;;;1.40;;
19492;SDS011;9887;54.366;10.958;2022-07-29T06:48:28;3.97;;;1.52;;
19492;SDS011;9887;54.366;10.958;2022-07-29T06:50:58;6.10;;;2.25;;
19492;SDS011;9887;54.366;10.958;2022-07-29T06:53:27;5.75;;;1.50;;
19492;SDS011;9887;54.366;10.958;2022-07-29T06:55:56;7.03;;;1.60;;
19492;SDS011;9887;54.366;10.958;2022-07-29T06:58:25;5.45;;;1.40;;
19492;SDS011;9887;54.366;10.958;2022-07-29T07:00:56;4.80;;;1.42;;
19492;SDS011;9887;54.366;10.958;2022-07-29T07:03:25;4.03;;;1.65;;
19492;SDS011;9887;54.366;10.958;2022-07-29T07:05:53;8.68;;;1.45;;
19492;SDS011;9887;54.366;10.958;2022-07-29T07:08:23;5.93;;;1.50;;
19492;SDS011;9887;54.366;10.958;2022-07-29T07:10:52;5.65;;;1.75;;
19492;SDS011;9887;54.366;10.958;2022-07-29T07:13:21;11.15;;;2.03;;
19492;SDS011;9887;54.366;10.958;2022-07-29T07:15:49;5.05;;;1.58;;
19492;SDS011;9887;54.366;10.958;2022-07-29T07:18:18;5.00;;;1.88;;
19492;SDS011;9887;54.366;10.958;2022-07-29T07:20:46;4.05;;;1.38;;
19492;SDS011;9887;54.366;10.958;2022-07-29T07:23:14;6.78;;;1.52;;
19492;SDS011;9887;54.366;10.958;2022-07-29T07:25:44;6.35;;;1.70;;
19492;SDS011;9887;54.366;10.958;2022-07-29T07:28:12;4.78;;;1.77;;
19492;SDS011;9887;54.366;10.958;2022-07-29T07:30:40;7.57;;;2.15;;
19492;SDS011;9887;54.366;10.958;2022-07-29T07:33:07;5.72;;;1.63;;
19492;SDS011;9887;54.366;10.958;2022-07-29T07:35:35;6.05;;;2.20;;
19492;SDS011;9887;54.366;10.958;2022-07-29T07:38:03;5.90;;;1.80;;
19492;SDS011;9887;54.366;10.958;2022-07-29T07:40:32;7.20;;;2.20;;
19492;SDS011;9887;54.366;10.958;2022-07-29T07:43:01;9.05;;;1.98;;
19492;SDS011;9887;54.366;10.958;2022-07-29T07:45:29;6.30;;;1.77;;
19492;SDS011;9887;54.366;10.958;2022-07-29T07:47:59;5.45;;;1.40;;
19492;SDS011;9887;54.366;10.958;2022-07-29T07:50:27;8.93;;;2.00;;
19492;SDS011;9887;54.366;10.958;2022-07-29T07:52:56;6.07;;;2.40;;
19492;SDS011;9887;54.366;10.958;2022-07-29T07:55:24;6.40;;;1.38;;
19492;SDS011;9887;54.366;10.958;2022-07-29T07:57:53;5.47;;;1.30;;
19492;SDS011;9887;54.366;10.958;2022-07-29T08:00:22;6.30;;;1.45;;
19492;SDS011;9887;54.366;10.958;2022-07-29T08:02:50;5.07;;;1.55;;
19492;SDS011;9887;54.366;10.958;2022-07-29T08:05:18;5.32;;;1.40;;
19492;SDS011;9887;54.366;10.958;2022-07-29T08:07:47;7.18;;;1.70;;
19492;SDS011;9887;54.366;10.958;2022-07-29T08:10:15;5.57;;;1.70;;
19492;SDS011;9887;54.366;10.958;2022-07-29T08:13:05;5.28;;;1.40;;
19492;SDS011;9887;54.366;10.958;2022-07-29T08:15:35;7.75;;;1.45;;
19492;SDS011;9887;54.366;10.958;2022-07-29T08:18:03;4.05;;;1.20;;
19492;SDS011;9887;54.366;10.958;2022-07-29T08:20:34;3.97;;;1.42;;
19492;SDS011;9887;54.366;10.958;2022-07-29T08:23:04;5.55;;;1.30;;
19492;SDS011;9887;54.366;10.958;2022-07-29T08:25:35;4.68;;;1.30;;
19492;SDS011;9887;54.366;10.958;2022-07-29T08:28:05;5.60;;;1.23;;
19492;SDS011;9887;54.366;10.958;2022-07-29T08:30:35;6.57;;;1.35;;
19492;SDS011;9887;54.366;10.958;2022-07-29T08:33:03;6.00;;;1.50;;
19492;SDS011;9887;54.366;10.958;2022-07-29T08:35:31;6.95;;;1.35;;
19492;SDS011;9887;54.366;10.958;2022-07-29T08:38:01;5.78;;;1.15;;
19492;SDS011;9887;54.366;10.958;2022-07-29T08:40:29;4.03;;;1.20;;
19492;SDS011;9887;54.366;10.958;2022-07-29T08:42:58;3.58;;;1.40;;
19492;SDS011;9887;54.366;10.958;2022-07-29T08:45:35;4.32;;;1.20;;
19492;SDS011;9887;54.366;10.958;2022-07-29T08:48:13;5.50;;;1.10;;
19492;SDS011;9887;54.366;10.958;2022-07-29T08:50:42;3.80;;;1.05;;
19492;SDS011;9887;54.366;10.958;2022-07-29T08:53:13;6.82;;;1.80;;
19492;SDS011;9887;54.366;10.958;2022-07-29T08:55:41;6.57;;;1.58;;
19492;SDS011;9887;54.366;10.958;2022-07-29T08:58:10;4.25;;;0.90;;
19492;SDS011;9887;54.366;10.958;2022-07-29T09:00:43;4.03;;;1.38;;
19492;SDS011;9887;54.366;10.958;2022-07-29T09:03:15;2.97;;;1.20;;
19492;SDS011;9887;54.366;10.958;2022-07-29T09:05:45;4.15;;;1.20;;
19492;SDS011;9887;54.366;10.958;2022-07-29T09:08:14;4.88;;;1.65;;
19492;SDS011;9887;54.366;10.958;2022-07-29T09:10:43;3.17;;;1.25;;
19492;SDS011;9887;54.366;10.958;2022-07-29T09:13:11;3.55;;;1.17;;
19492;SDS011;9887;54.366;10.958;2022-07-29T09:15:39;2.72;;;1.10;;
19492;SDS011;9887;54.366;10.958;2022-07-29T09:18:09;3.60;;;1.30;;
19492;SDS011;9887;54.366;10.958;2022-07-29T09:20:55;4.97;;;1.10;;
19492;SDS011;9887;54.366;10.958;2022-07-29T09:23:41;4.35;;;1.10;;
19492;SDS011;9887;54.366;10.958;2022-07-29T09:26:27;5.70;;;1.13;;
19492;SDS011;9887;54.366;10.958;2022-07-29T09:28:56;4.03;;;1.05;;
19492;SDS011;9887;54.366;10.958;2022-07-29T09:31:35;7.95;;;1.10;;
19492;SDS011;9887;54.366;10.958;2022-07-29T09:34:05;6.65;;;1.27;;
19492;SDS011;9887;54.366;10.958;2022-07-29T09:36:38;2.92;;;1.10;;
19492;SDS011;9887;54.366;10.958;2022-07-29T09:39:06;3.05;;;1.17;;
19492;SDS011;9887;54.366;10.958;2022-07-29T09:41:44;6.88;;;1.30;;
19492;SDS011;9887;54.366;10.958;2022-07-29T09:44:13;4.70;;;1.20;;
19492;SDS011;9887;54.366;10.958;2022-07-29T09:46:51;3.13;;;1.02;;
19492;SDS011;9887;54.366;10.958;2022-07-29T09:49:22;4.35;;;1.23;;
19492;SDS011;9887;54.366;10.958;2022-07-29T09:52:00;3.28;;;1.00;;
19492;SDS011;9887;54.366;10.958;2022-07-29T09:54:32;3.83;;;1.30;;
19492;SDS011;9887;54.366;10.958;2022-07-29T09:57:03;5.70;;;1.40;;
19492;SDS011;9887;54.366;10.958;2022-07-29T09:59:32;3.65;;;1.20;;
19492;SDS011;9887;54.366;10.958;2022-07-29T10:02:01;5.18;;;1.42;;
19492;SDS011;9887;54.366;10.958;2022-07-29T10:04:40;3.75;;;1.42;;
19492;SDS011;9887;54.366;10.958;2022-07-29T10:07:09;4.18;;;1.20;;
19492;SDS011;9887;54.366;10.958;2022-07-29T10:09:37;2.92;;;1.13;;
19492;SDS011;9887;54.366;10.958;2022-07-29T10:12:05;4.15;;;1.20;;
19492;SDS011;9887;54.366;10.958;2022-07-29T10:14:35;8.70;;;1.52;;
19492;SDS011;9887;54.366;10.958;2022-07-29T10:17:04;5.47;;;1.30;;
19492;SDS011;9887;54.366;10.958;2022-07-29T10:19:34;7.82;;;2.28;;
19492;SDS011;9887;54.366;10.958;2022-07-29T10:22:05;6.22;;;1.10;;
19492;SDS011;9887;54.366;10.958;2022-07-29T10:24:34;5.13;;;1.10;;
19492;SDS011;9887;54.366;10.958;2022-07-29T10:27:04;4.80;;;1.20;;
19492;SDS011;9887;54.366;10.958;2022-07-29T10:29:33;6.50;;;1.95;;
19492;SDS011;9887;54.366;10.958;2022-07-29T10:35:12;4.90;;;1.00;;
19492;SDS011;9887;54.366;10.958;2022-07-29T10:38:02;4.45;;;1.15;;
19492;SDS011;9887;54.366;10.958;2022-07-29T10:40:45;6.93;;;1.27;;
19492;SDS011;9887;54.366;10.958;2022-07-29T10:43:45;7.15;;;2.00;;
19492;SDS011;9887;54.366;10.958;2022-07-29T10:46:17;5.43;;;1.50;;
19492;SDS011;9887;54.366;10.958;2022-07-29T10:49:04;3.58;;;1.38;;
19492;SDS011;9887;54.366;10.958;2022-07-29T10:54:40;5.57;;;1.70;;
19492;SDS011;9887;54.366;10.958;2022-07-29T10:57:14;4.38;;;1.55;;
19492;SDS011;9887;54.366;10.958;2022-07-29T10:59:46;6.32;;;1.70;;
19492;SDS011;9887;54.366;10.958;2022-07-29T11:02:40;3.88;;;1.40;;
19492;SDS011;9887;54.366;10.958;2022-07-29T11:05:11;5.65;;;2.33;;
19492;SDS011;9887;54.366;10.958;2022-07-29T11:08:16;4.22;;;1.40;;
19492;SDS011;9887;54.366;10.958;2022-07-29T11:14:10;3.95;;;1.58;;
19492;SDS011;9887;54.366;10.958;2022-07-29T11:16:58;5.18;;;1.80;;
19492;SDS011;9887;54.366;10.958;2022-07-29T11:19:32;3.50;;;1.52;;
19492;SDS011;9887;54.366;10.958;2022-07-29T11:22:01;4.25;;;1.85;;
19492;SDS011;9887;54.366;10.958;2022-07-29T11:24:31;4.28;;;1.90;;
19492;SDS011;9887;54.366;10.958;2022-07-29T11:27:10;6.47;;;1.48;;
19492;SDS011;9887;54.366;10.958;2022-07-29T11:29:50;3.17;;;1.23;;
19492;SDS011;9887;54.366;10.958;2022-07-29T11:32:19;10.57;;;1.55;;
19492;SDS011;9887;54.366;10.958;2022-07-29T11:34:49;5.07;;;1.45;;
19492;SDS011;9887;54.366;10.958;2022-07-29T11:37:43;5.13;;;1.52;;
19492;SDS011;9887;54.366;10.958;2022-07-29T11:40:23;4.75;;;1.50;;
19492;SDS011;9887;54.366;10.958;2022-07-29T11:42:51;7.47;;;1.60;;
19492;SDS011;9887;54.366;10.958;2022-07-29T11:45:24;10.52;;;1.70;;
19492;SDS011;9887;54.366;10.958;2022-07-29T11:48:14;5.65;;;1.50;;
19492;SDS011;9887;54.366;10.958;2022-07-29T11:51:09;3.30;;;1.17;;
19492;SDS011;9887;54.366;10.958;2022-07-29T11:53:38;8.65;;;1.67;;
19492;SDS011;9887;54.366;10.958;2022-07-29T11:56:08;2.90;;;1.40;;
19492;SDS011;9887;54.366;10.958;2022-07-29T11:58:42;2.60;;;0.93;;
19492;SDS011;9887;54.366;10.958;2022-07-29T12:01:12;5.55;;;1.48;;
19492;SDS011;9887;54.366;10.958;2022-07-29T12:03:41;3.70;;;1.20;;
19492;SDS011;9887;54.366;10.958;2022-07-29T12:06:14;6.57;;;1.60;;
19492;SDS011;9887;54.366;10.958;2022-07-29T12:08:43;6.78;;;1.38;;
19492;SDS011;9887;54.366;10.958;2022-07-29T12:11:16;10.82;;;2.42;;
19492;SDS011;9887;54.366;10.958;2022-07-29T12:13:47;4.45;;;1.50;;
19492;SDS011;9887;54.366;10.958;2022-07-29T12:16:16;6.25;;;1.38;;
19492;SDS011;9887;54.366;10.958;2022-07-29T12:18:55;5.55;;;1.25;;
19492;SDS011;9887;54.366;10.958;2022-07-29T12:21:26;7.13;;;1.42;;
19492;SDS011;9887;54.366;10.958;2022-07-29T12:23:55;6.82;;;1.58;;
19492;SDS011;9887;54.366;10.958;2022-07-29T12:26:34;6.07;;;1.63;;
19492;SDS011;9887;54.366;10.958;2022-07-29T12:29:02;5.95;;;1.67;;
19492;SDS011;9887;54.366;10.958;2022-07-29T12:31:39;9.95;;;1.60;;
19492;SDS011;9887;54.366;10.958;2022-07-29T12:34:11;5.28;;;1.50;;
19492;SDS011;9887;54.366;10.958;2022-07-29T12:36:41;4.55;;;1.70;;
19492;SDS011;9887;54.366;10.958;2022-07-29T12:39:10;4.40;;;1.70;;
19492;SDS011;9887;54.366;10.958;2022-07-29T12:41:38;9.15;;;2.00;;
19492;SDS011;9887;54.366;10.958;2022-07-29T12:44:06;5.13;;;1.77;;
19492;SDS011;9887;54.366;10.958;2022-07-29T12:46:34;3.70;;;1.55;;
19492;SDS011;9887;54.366;10.958;2022-07-29T12:49:04;5.95;;;1.70;;
19492;SDS011;9887;54.366;10.958;2022-07-29T12:51:33;6.57;;;1.88;;
19492;SDS011;9887;54.366;10.958;2022-07-29T12:54:05;4.80;;;1.70;;
19492;SDS011;9887;54.366;10.958;2022-07-29T12:56:34;6.00;;;1.92;;
19492;SDS011;9887;54.366;10.958;2022-07-29T12:59:11;5.72;;;1.63;;
19492;SDS011;9887;54.366;10.958;2022-07-29T13:01:43;8.57;;;2.35;;
19492;SDS011;9887;54.366;10.958;2022-07-29T13:04:23;4.63;;;1.52;;
19492;SDS011;9887;54.366;10.958;2022-07-29T13:06:57;4.30;;;2.20;;
19492;SDS011;9887;54.366;10.958;2022-07-29T13:09:37;9.05;;;1.98;;
19492;SDS011;9887;54.366;10.958;2022-07-29T13:12:08;8.05;;;1.83;;
19492;SDS011;9887;54.366;10.958;2022-07-29T13:14:37;6.43;;;1.80;;
19492;SDS011;9887;54.366;10.958;2022-07-29T13:17:07;4.38;;;1.63;;
19492;SDS011;9887;54.366;10.958;2022-07-29T13:19:36;5.65;;;1.52;;
19492;SDS011;9887;54.366;10.958;2022-07-29T13:22:06;3.50;;;1.65;;
19492;SDS011;9887;54.366;10.958;2022-07-29T13:24:46;6.38;;;2.10;;
19492;SDS011;9887;54.366;10.958;2022-07-29T13:27:15;7.18;;;1.60;;
19492;SDS011;9887;54.366;10.958;2022-07-29T13:29:43;8.30;;;1.38;;
19492;SDS011;9887;54.366;10.958;2022-07-29T13:32:12;5.05;;;1.45;;
19492;SDS011;9887;54.366;10.958;2022-07-29T13:34:40;5.53;;;1.70;;
19492;SDS011;9887;54.366;10.958;2022-07-29T13:37:08;3.30;;;1.40;;
19492;SDS011;9887;54.366;10.958;2022-07-29T13:39:36;7.15;;;1.60;;
19492;SDS011;9887;54.366;10.958;2022-07-29T13:42:06;3.50;;;1.50;;
19492;SDS011;9887;54.366;10.958;2022-07-29T13:44:36;7.10;;;1.92;;
19492;SDS011;9887;54.366;10.958;2022-07-29T13:47:04;5.90;;;1.70;;
19492;SDS011;9887;54.366;10.958;2022-07-29T13:49:32;7.22;;;1.85;;
19492;SDS011;9887;54.366;10.958;2022-07-29T13:52:00;6.50;;;1.60;;
19492;SDS011;9887;54.366;10.958;2022-07-29T13:54:29;3.55;;;1.40;;
19492;SDS011;9887;54.366;10.958;2022-07-29T13:56:57;5.18;;;2.03;;
19492;SDS011;9887;54.366;10.958;2022-07-29T13:59:27;5.43;;;1.85;;
19492;SDS011;9887;54.366;10.958;2022-07-29T14:01:55;6.03;;;1.67;;
19492;SDS011;9887;54.366;10.958;2022-07-29T14:04:23;7.03;;;1.70;;
19492;SDS011;9887;54.366;10.958;2022-07-29T14:06:51;8.57;;;1.45;;
19492;SDS011;9887;54.366;10.958;2022-07-29T14:09:19;6.93;;;1.70;;
19492;SDS011;9887;54.366;10.958;2022-07-29T14:11:47;8.85;;;1.40;;
19492;SDS011;9887;54.366;10.958;2022-07-29T14:14:16;10.77;;;1.98;;
19492;SDS011;9887;54.366;10.958;2022-07-29T14:16:46;4.78;;;1.50;;
19492;SDS011;9887;54.366;10.958;2022-07-29T14:19:17;9.02;;;2.90;;
19492;SDS011;9887;54.366;10.958;2022-07-29T14:21:45;5.38;;;1.40;;
19492;SDS011;9887;54.366;10.958;2022-07-29T14:24:15;6.20;;;1.55;;
19492;SDS011;9887;54.366;10.958;2022-07-29T14:26:48;5.22;;;2.00;;
19492;SDS011;9887;54.366;10.958;2022-07-29T14:29:16;6.63;;;1.75;;
19492;SDS011;9887;54.366;10.958;2022-07-29T14:31:45;10.32;;;2.05;;
19492;SDS011;9887;54.366;10.958;2022-07-29T14:34:13;6.88;;;1.60;;
19492;SDS011;9887;54.366;10.958;2022-07-29T14:36:42;8.77;;;2.25;;
19492;SDS011;9887;54.366;10.958;2022-07-29T14:39:10;6.70;;;1.70;;
19492;SDS011;9887;54.366;10.958;2022-07-29T14:41:38;7.20;;;1.83;;
19492;SDS011;9887;54.366;10.958;2022-07-29T14:44:06;7.70;;;1.70;;
19492;SDS011;9887;54.366;10.958;2022-07-29T14:46:34;6.53;;;1.50;;
19492;SDS011;9887;54.366;10.958;2022-07-29T14:49:03;6.05;;;2.03;;
19492;SDS011;9887;54.366;10.958;2022-07-29T14:51:35;4.18;;;1.27;;
19492;SDS011;9887;54.366;10.958;2022-07-29T14:54:05;8.80;;;2.38;;
19492;SDS011;9887;54.366;10.958;2022-07-29T14:56:33;5.32;;;1.67;;
19492;SDS011;9887;54.366;10.958;2022-07-29T14:59:03;7.03;;;1.83;;
19492;SDS011;9887;54.366;10.958;2022-07-29T15:01:32;6.88;;;1.60;;
19492;SDS011;9887;54.366;10.958;2022-07-29T15:03:59;6.43;;;1.50;;
19492;SDS011;9887;54.366;10.958;2022-07-29T15:06:29;6.13;;;1.70;;
19492;SDS011;9887;54.366;10.958;2022-07-29T15:08:57;8.68;;;2.83;;
19492;SDS011;9887;54.366;10.958;2022-07-29T15:11:24;4.68;;;1.58;;
19492;SDS011;9887;54.366;10.958;2022-07-29T15:13:52;8.30;;;2.00;;
19492;SDS011;9887;54.366;10.958;2022-07-29T15:16:20;3.78;;;1.60;;
19492;SDS011;9887;54.366;10.958;2022-07-29T15:18:48;3.70;;;1.67;;
19492;SDS011;9887;54.366;10.958;2022-07-29T15:21:16;5.30;;;1.40;;